createdAt,value
2018-06-29T00:01:36.134Z,1.70
2018-06-29T00:04:03.939Z,2.07
2018-06-29T00:06:31.625Z,1.93
2018-06-29T00:08:59.291Z,2.30
2018-06-29T00:11:26.936Z,2.43
2018-06-29T00:13:54.650Z,4.37
2018-06-29T00:16:22.296Z,2.33
2018-06-29T00:18:49.525Z,2.20
2018-06-29T00:21:17.253Z,2.97
2018-06-29T00:23:44.942Z,2.87
2018-06-29T00:26:12.638Z,2.20
2018-06-29T00:28:40.343Z,2.10
2018-06-29T00:31:08.024Z,2.40
2018-06-29T00:33:35.731Z,4.67
2018-06-29T00:36:03.461Z,3.17
2018-06-29T00:38:31.107Z,1.97
2018-06-29T00:40:58.761Z,2.23
2018-06-29T00:43:26.477Z,1.90
2018-06-29T00:45:54.181Z,2.30
2018-06-29T00:48:21.855Z,2.40
2018-06-29T00:50:49.592Z,3.80
2018-06-29T00:53:17.291Z,3.50
2018-06-29T00:55:44.999Z,2.40
2018-06-29T00:58:12.710Z,2.70
2018-06-29T01:00:40.396Z,1.70
2018-06-29T01:03:08.059Z,2.43
2018-06-29T01:05:35.737Z,2.60
2018-06-29T01:08:03.437Z,1.70
2018-06-29T01:10:31.095Z,1.73
2018-06-29T01:12:58.772Z,2.80
2018-06-29T01:15:26.471Z,2.93
2018-06-29T01:17:54.196Z,2.10
2018-06-29T01:20:21.839Z,2.20
2018-06-29T01:22:49.555Z,1.90
2018-06-29T01:25:18.033Z,2.03
2018-06-29T01:27:45.719Z,1.83
2018-06-29T01:30:13.561Z,2.23
2018-06-29T01:32:41.224Z,2.07
2018-06-29T01:35:08.963Z,2.00
2018-06-29T01:37:36.748Z,1.80
2018-06-29T01:40:04.486Z,1.60
2018-06-29T01:42:32.182Z,1.70
2018-06-29T01:44:59.891Z,2.93
2018-06-29T01:47:27.561Z,2.00
2018-06-29T01:49:55.272Z,1.93
2018-06-29T01:52:22.980Z,2.47
2018-06-29T01:54:50.705Z,2.00
2018-06-29T01:57:18.411Z,2.23
2018-06-29T01:59:46.085Z,2.60
2018-06-29T02:02:13.761Z,2.03
2018-06-29T02:04:41.415Z,3.47
2018-06-29T02:07:09.109Z,1.83
2018-06-29T02:09:36.770Z,2.43
2018-06-29T02:12:04.619Z,2.37
2018-06-29T02:14:32.295Z,2.37
2018-06-29T02:17:00.234Z,3.30
2018-06-29T02:19:27.943Z,2.50
2018-06-29T02:21:55.603Z,1.87
2018-06-29T02:24:23.326Z,2.40
2018-06-29T02:26:51.159Z,2.57
2018-06-29T02:29:19.024Z,2.10
2018-06-29T02:31:46.771Z,3.63
2018-06-29T02:34:14.585Z,2.43
2018-06-29T02:36:42.466Z,2.87
2018-06-29T02:39:12.091Z,2.30
2018-06-29T02:41:40.026Z,2.90
2018-06-29T02:44:07.733Z,3.00
2018-06-29T02:46:35.530Z,3.27
2018-06-29T02:49:04.060Z,1.90
2018-06-29T02:51:31.790Z,2.90
2018-06-29T02:53:59.494Z,3.17
2018-06-29T02:56:27.186Z,2.13
2018-06-29T02:58:54.859Z,3.03
2018-06-29T03:01:22.763Z,3.57
2018-06-29T03:03:50.450Z,2.73
2018-06-29T03:06:18.262Z,2.63
2018-06-29T03:08:45.910Z,4.70
2018-06-29T03:11:13.620Z,2.63
2018-06-29T03:13:41.287Z,3.73
2018-06-29T03:16:09.100Z,2.40
2018-06-29T03:18:36.805Z,2.60
2018-06-29T03:21:04.759Z,3.90
2018-06-29T03:23:32.421Z,3.00
2018-06-29T03:26:00.112Z,3.57
2018-06-29T03:28:28.000Z,2.67
2018-06-29T03:30:55.682Z,4.33
2018-06-29T03:33:23.638Z,4.27
2018-06-29T03:35:51.451Z,3.07
2018-06-29T03:38:19.160Z,3.70
2018-06-29T03:40:46.855Z,3.73
2018-06-29T03:43:14.574Z,3.30
2018-06-29T03:45:42.272Z,5.60
2018-06-29T03:48:10.241Z,4.53
2018-06-29T03:50:37.938Z,4.97
2018-06-29T03:53:06.947Z,4.40
2018-06-29T03:55:34.682Z,4.10
2018-06-29T03:58:02.441Z,4.50
2018-06-29T04:00:30.143Z,4.80
2018-06-29T04:02:58.021Z,4.90
2018-06-29T04:05:25.690Z,5.17
2018-06-29T04:07:53.663Z,4.93
2018-06-29T04:10:21.398Z,5.27
2018-06-29T04:12:49.195Z,6.07
2018-06-29T04:15:16.905Z,5.50
2018-06-29T04:17:44.675Z,6.13
2018-06-29T04:20:12.414Z,6.23
2018-06-29T04:22:41.012Z,6.10
2018-06-29T04:25:08.775Z,6.30
2018-06-29T04:27:36.437Z,5.93
2018-06-29T04:30:04.382Z,9.17
2018-06-29T04:32:32.086Z,6.50
2018-06-29T04:34:59.731Z,5.77
2018-06-29T04:37:27.418Z,6.60
2018-06-29T04:39:55.111Z,6.13
2018-06-29T04:42:22.831Z,6.90
2018-06-29T04:44:50.501Z,7.47
2018-06-29T04:47:18.546Z,7.23
2018-06-29T04:49:46.234Z,8.03
2018-06-29T04:52:13.883Z,7.73
2018-06-29T04:54:43.840Z,7.80
2018-06-29T04:57:12.728Z,7.53
2018-06-29T04:59:40.511Z,8.60
2018-06-29T05:02:08.247Z,8.10
2018-06-29T05:04:35.952Z,7.80
2018-06-29T05:07:04.499Z,6.87
2018-06-29T05:09:32.182Z,7.73
2018-06-29T05:11:59.928Z,8.17
2018-06-29T05:14:27.663Z,9.53
2018-06-29T05:16:55.472Z,8.67
2018-06-29T05:19:23.137Z,8.70
2018-06-29T05:21:50.826Z,8.10
2018-06-29T05:24:18.704Z,7.43
2018-06-29T05:26:46.397Z,6.33
2018-06-29T05:29:14.114Z,7.77
2018-06-29T05:31:41.798Z,7.90
2018-06-29T05:34:09.534Z,8.17
2018-06-29T05:36:37.386Z,10.43
2018-06-29T05:39:07.878Z,8.37
2018-06-29T05:41:36.098Z,7.77
2018-06-29T05:44:04.213Z,6.73
2018-06-29T05:46:31.894Z,8.03
2018-06-29T05:48:59.573Z,7.23
2018-06-29T05:51:27.317Z,7.57
2018-06-29T05:53:55.027Z,7.50
2018-06-29T05:56:22.689Z,9.10
2018-06-29T05:58:50.411Z,8.63
2018-06-29T06:01:18.151Z,13.13
2018-06-29T06:03:45.897Z,8.87
2018-06-29T06:06:13.628Z,9.43
2018-06-29T06:08:41.368Z,11.07
2018-06-29T06:11:09.325Z,9.10
2018-06-29T06:13:37.111Z,6.27
2018-06-29T06:16:04.969Z,9.97
2018-06-29T06:18:32.700Z,7.97
2018-06-29T06:21:00.370Z,6.57
2018-06-29T06:23:28.073Z,7.40
2018-06-29T06:25:55.802Z,8.53
2018-06-29T06:28:23.547Z,6.70
2018-06-29T06:30:51.249Z,6.20
2018-06-29T06:33:18.969Z,9.17
2018-06-29T06:35:46.652Z,5.33
2018-06-29T06:38:14.358Z,5.77
2018-06-29T06:40:42.266Z,7.70
2018-06-29T06:43:10.019Z,6.07
2018-06-29T06:45:37.776Z,8.17
2018-06-29T06:48:06.850Z,7.00
2018-06-29T06:50:34.635Z,7.37
2018-06-29T06:53:02.364Z,6.70
2018-06-29T06:55:30.191Z,7.57
2018-06-29T06:57:57.849Z,6.47
2018-06-29T07:00:25.571Z,6.63
2018-06-29T07:02:53.240Z,9.67
2018-06-29T07:05:20.931Z,6.17
2018-06-29T07:07:48.659Z,6.53
2018-06-29T07:10:16.401Z,5.70
2018-06-29T07:12:44.112Z,6.27
2018-06-29T07:15:12.298Z,6.53
2018-06-29T07:17:40.058Z,5.77
2018-06-29T07:20:08.645Z,8.13
2018-06-29T07:22:36.482Z,4.43
2018-06-29T07:25:04.406Z,6.10
2018-06-29T07:27:33.580Z,4.63
2018-06-29T07:30:01.567Z,6.07
2018-06-29T07:32:29.395Z,3.47
2018-06-29T07:35:00.053Z,4.30
2018-06-29T07:37:27.822Z,5.13
2018-06-29T07:39:55.537Z,7.30
2018-06-29T07:42:23.280Z,5.27
2018-06-29T07:44:50.953Z,5.93
2018-06-29T07:47:18.641Z,5.17
2018-06-29T07:49:46.355Z,3.93
2018-06-29T07:52:14.107Z,4.00
2018-06-29T07:54:41.927Z,5.40
2018-06-29T07:57:10.035Z,6.20
2018-06-29T07:59:37.799Z,4.57
2018-06-29T08:02:05.960Z,5.17
2018-06-29T08:04:33.871Z,4.80
2018-06-29T08:08:31.151Z,4.80
2018-06-29T08:10:59.353Z,4.43
2018-06-29T08:13:27.766Z,6.33
2018-06-29T08:15:55.542Z,4.40
2018-06-29T08:18:24.560Z,3.77
2018-06-29T08:20:52.335Z,3.93
2018-06-29T08:23:20.810Z,5.90
2018-06-29T08:25:48.503Z,3.37
2018-06-29T08:28:16.226Z,4.57
2018-06-29T08:30:43.957Z,3.50
2018-06-29T08:33:11.671Z,5.37
2018-06-29T08:35:39.400Z,4.77
2018-06-29T08:38:07.141Z,4.13
2018-06-29T08:40:34.938Z,3.37
2018-06-29T08:43:02.666Z,2.47
2018-06-29T08:45:30.437Z,2.23
2018-06-29T08:47:58.221Z,2.62
2018-06-29T08:50:26.067Z,3.77
2018-06-29T08:52:54.150Z,2.35
2018-06-29T08:55:21.847Z,3.10
2018-06-29T08:57:49.606Z,5.47
2018-06-29T09:00:17.294Z,4.45
2018-06-29T09:02:45.024Z,4.40
2018-06-29T09:05:12.706Z,2.67
2018-06-29T09:07:40.419Z,4.50
2018-06-29T09:10:08.186Z,2.75
2018-06-29T09:12:36.655Z,3.12
2018-06-29T09:15:04.451Z,2.45
2018-06-29T09:17:32.140Z,1.98
2018-06-29T09:19:59.849Z,5.17
2018-06-29T09:22:27.499Z,2.95
2018-06-29T09:24:55.311Z,3.62
2018-06-29T09:27:23.024Z,2.20
2018-06-29T09:29:50.759Z,2.77
2018-06-29T09:32:19.049Z,2.05
2018-06-29T09:34:47.959Z,2.70
2018-06-29T09:37:15.825Z,2.42
2018-06-29T09:39:44.231Z,3.75
2018-06-29T09:42:11.925Z,3.98
2018-06-29T09:44:39.597Z,3.08
2018-06-29T09:47:07.309Z,2.05
2018-06-29T09:49:35.151Z,2.30
2018-06-29T09:52:03.080Z,2.72
2018-06-29T09:54:31.895Z,2.95
2018-06-29T09:56:59.608Z,2.25
2018-06-29T09:59:27.309Z,2.60
2018-06-29T10:01:54.969Z,3.37
2018-06-29T10:04:22.634Z,3.17
2018-06-29T10:06:50.547Z,6.53
2018-06-29T10:09:18.244Z,1.80
2018-06-29T10:11:45.927Z,2.20
2018-06-29T10:14:13.616Z,2.85
2018-06-29T10:16:42.099Z,2.33
2018-06-29T10:19:09.745Z,3.02
2018-06-29T10:21:37.436Z,3.20
2018-06-29T10:24:05.158Z,4.00
2018-06-29T10:26:32.823Z,2.72
2018-06-29T10:29:00.911Z,4.72
2018-06-29T10:31:28.739Z,2.40
2018-06-29T10:33:56.354Z,1.65
2018-06-29T10:36:24.102Z,3.35
2018-06-29T10:38:52.497Z,1.85
2018-06-29T10:41:20.195Z,1.72
2018-06-29T10:43:47.865Z,1.90
2018-06-29T10:46:15.911Z,2.80
2018-06-29T10:48:43.765Z,2.90
2018-06-29T10:51:11.924Z,2.87
2018-06-29T10:53:40.119Z,1.65
2018-06-29T10:56:07.813Z,2.00
2018-06-29T10:58:35.736Z,2.00
2018-06-29T11:01:03.759Z,2.45
2018-06-29T11:03:31.469Z,2.33
2018-06-29T11:05:59.159Z,1.50
2018-06-29T11:08:26.935Z,4.53
2018-06-29T11:10:54.720Z,2.20
2018-06-29T11:13:22.386Z,3.95
2018-06-29T11:15:50.069Z,4.97
2018-06-29T11:18:17.926Z,2.72
2018-06-29T11:20:45.595Z,3.15
2018-06-29T11:23:13.267Z,2.35
2018-06-29T11:25:41.040Z,1.65
2018-06-29T11:28:08.805Z,1.57
2018-06-29T11:30:37.898Z,2.12
2018-06-29T11:33:05.729Z,3.05
2018-06-29T11:35:34.447Z,2.27
2018-06-29T11:38:02.236Z,2.58
2018-06-29T11:40:31.921Z,1.60
2018-06-29T11:42:59.642Z,1.98
2018-06-29T11:45:27.380Z,2.20
2018-06-29T11:47:55.078Z,2.52
2018-06-29T11:50:22.812Z,1.30
2018-06-29T11:52:50.581Z,1.42
2018-06-29T11:55:18.227Z,5.17
2018-06-29T11:57:46.792Z,1.32
2018-06-29T12:00:14.517Z,1.70
2018-06-29T12:02:42.216Z,1.45
2018-06-29T12:05:09.938Z,2.15
2018-06-29T12:07:37.590Z,2.72
2018-06-29T12:10:05.307Z,1.52
2018-06-29T12:12:32.956Z,1.20
2018-06-29T12:15:00.750Z,1.47
2018-06-29T12:17:28.346Z,1.95
2018-06-29T12:19:56.042Z,1.27
2018-06-29T12:22:23.667Z,2.17
2018-06-29T12:24:51.351Z,1.75
2018-06-29T12:27:19.074Z,1.42
2018-06-29T12:29:46.757Z,1.60
2018-06-29T12:32:14.510Z,1.40
2018-06-29T12:34:42.177Z,1.17
2018-06-29T12:37:09.848Z,1.32
2018-06-29T12:39:37.522Z,1.60
2018-06-29T12:42:05.280Z,1.07
2018-06-29T12:44:32.983Z,1.00
2018-06-29T12:47:00.658Z,1.32
2018-06-29T12:49:28.345Z,1.32
2018-06-29T12:51:56.444Z,1.02
2018-06-29T12:54:24.339Z,1.85
2018-06-29T12:56:52.124Z,1.95
2018-06-29T12:59:19.814Z,2.35
2018-06-29T13:01:47.561Z,5.00
2018-06-29T13:04:15.505Z,1.40
2018-06-29T13:06:43.236Z,1.20
2018-06-29T13:09:11.251Z,3.22
2018-06-29T13:11:38.983Z,1.10
2018-06-29T13:14:06.950Z,1.75
2018-06-29T13:16:35.072Z,1.50
2018-06-29T13:19:02.777Z,1.55
2018-06-29T13:21:30.457Z,1.60
2018-06-29T13:23:58.167Z,1.00
2018-06-29T13:26:25.839Z,1.95
2018-06-29T13:28:54.006Z,1.35
2018-06-29T13:31:21.710Z,1.92
2018-06-29T13:33:49.678Z,3.22
2018-06-29T13:36:17.370Z,1.98
2018-06-29T13:38:45.040Z,2.17
2018-06-29T13:41:12.695Z,1.82
2018-06-29T13:43:40.367Z,2.00
2018-06-29T13:46:08.103Z,1.55
2018-06-29T13:48:35.758Z,5.20
2018-06-29T13:51:03.521Z,1.45
2018-06-29T13:53:31.251Z,3.72
2018-06-29T13:55:59.115Z,2.05
2018-06-29T13:58:27.192Z,1.95
2018-06-29T14:00:54.920Z,2.05
2018-06-29T14:03:22.628Z,2.90
2018-06-29T14:05:50.283Z,2.20
2018-06-29T14:08:17.960Z,1.77
2018-06-29T14:10:45.710Z,9.00
2018-06-29T14:13:13.415Z,2.42
2018-06-29T14:15:41.158Z,1.60
2018-06-29T14:18:09.140Z,1.72
2018-06-29T14:20:36.754Z,1.40
2018-06-29T14:23:04.463Z,1.65
2018-06-29T14:25:32.135Z,3.62
2018-06-29T14:28:00.061Z,2.45
2018-06-29T14:30:27.711Z,2.42
2018-06-29T14:32:55.442Z,2.30
2018-06-29T14:35:23.123Z,2.52
2018-06-29T14:37:50.975Z,3.60
2018-06-29T14:40:18.642Z,3.70
2018-06-29T14:42:46.321Z,1.90
2018-06-29T14:45:28.968Z,1.52
2018-06-29T14:47:56.623Z,1.47
2018-06-29T14:50:24.267Z,1.55
2018-06-29T14:52:51.922Z,2.00
2018-06-29T14:55:19.578Z,1.80
2018-06-29T14:57:47.267Z,3.50
2018-06-29T15:00:15.018Z,1.80
2018-06-29T15:02:42.737Z,2.83
2018-06-29T15:05:12.961Z,7.55
2018-06-29T15:07:40.727Z,3.55
2018-06-29T15:10:08.464Z,2.08
2018-06-29T15:12:36.352Z,3.83
2018-06-29T15:15:04.188Z,2.25
2018-06-29T15:17:32.080Z,2.47
2018-06-29T15:19:59.909Z,2.83
2018-06-29T15:22:27.858Z,1.80
2018-06-29T15:24:55.608Z,2.90
2018-06-29T15:27:23.363Z,4.05
2018-06-29T15:29:51.279Z,3.40
2018-06-29T15:32:19.015Z,2.05
2018-06-29T15:34:46.742Z,2.52
2018-06-29T15:37:15.079Z,2.25
2018-06-29T15:39:42.756Z,2.72
2018-06-29T15:42:10.441Z,3.58
2018-06-29T15:44:38.090Z,1.95
2018-06-29T15:47:05.881Z,3.20
2018-06-29T15:49:33.734Z,3.47
2018-06-29T15:52:01.536Z,2.08
2018-06-29T15:54:29.239Z,2.45
2018-06-29T15:56:57.001Z,4.05
2018-06-29T15:59:24.740Z,4.28
2018-06-29T16:01:52.439Z,2.33
2018-06-29T16:04:20.176Z,3.20
2018-06-29T16:06:47.949Z,2.67
2018-06-29T16:09:16.339Z,2.77
2018-06-29T16:11:44.057Z,3.30
2018-06-29T16:14:12.079Z,2.83
2018-06-29T16:16:39.754Z,2.22
2018-06-29T16:19:07.444Z,4.15
2018-06-29T16:21:35.151Z,3.47
2018-06-29T16:24:02.845Z,2.58
2018-06-29T16:26:30.585Z,3.05
2018-06-29T16:28:58.286Z,3.30
2018-06-29T16:31:25.999Z,5.03
2018-06-29T16:33:53.710Z,4.97
2018-06-29T16:36:21.396Z,7.97
2018-06-29T16:38:49.104Z,5.80
2018-06-29T16:41:17.851Z,5.25
2018-06-29T16:43:45.763Z,5.42
2018-06-29T16:46:13.550Z,4.55
2018-06-29T16:48:41.272Z,3.40
2018-06-29T16:51:10.230Z,7.87
2018-06-29T16:53:38.612Z,6.65
2018-06-29T16:56:06.683Z,5.37
2018-06-29T16:58:34.431Z,6.03
2018-06-29T17:01:02.365Z,4.22
2018-06-29T17:03:30.121Z,9.23
2018-06-29T17:05:57.905Z,5.03
2018-06-29T17:08:25.676Z,4.22
2018-06-29T17:10:54.756Z,7.15
2018-06-29T17:13:22.426Z,4.22
2018-06-29T17:15:50.125Z,7.10
2018-06-29T17:18:17.847Z,5.35
2018-06-29T17:20:45.549Z,5.53
2018-06-29T17:23:13.231Z,5.95
2018-06-29T17:25:40.862Z,7.10
2018-06-29T17:28:08.597Z,4.25
2018-06-29T17:30:36.335Z,7.40
2018-06-29T17:33:04.211Z,6.53
2018-06-29T17:35:31.923Z,4.83
2018-06-29T17:37:59.764Z,5.75
2018-06-29T17:40:27.488Z,6.47
2018-06-29T17:42:55.145Z,6.05
2018-06-29T17:45:24.391Z,6.12
2018-06-29T17:47:52.255Z,4.22
2018-06-29T17:50:20.176Z,7.30
2018-06-29T17:52:48.168Z,6.80
2018-06-29T17:55:16.003Z,5.30
2018-06-29T17:57:43.761Z,9.95
2018-06-29T18:00:11.517Z,5.28
2018-06-29T18:02:39.374Z,6.55
2018-06-29T18:05:07.268Z,5.53
2018-06-29T18:07:35.076Z,6.20
2018-06-29T18:10:02.931Z,7.53
2018-06-29T18:12:30.654Z,8.13
2018-06-29T18:14:58.916Z,5.97
2018-06-29T18:17:26.665Z,7.08
2018-06-29T18:22:33.087Z,5.15
2018-06-29T18:25:00.878Z,5.10
2018-06-29T18:27:28.756Z,9.68
2018-06-29T18:29:56.490Z,6.62
2018-06-29T18:32:24.425Z,7.17
2018-06-29T18:39:27.146Z,6.95
2018-06-29T18:41:54.859Z,4.70
2018-06-29T18:44:22.511Z,3.77
2018-06-29T18:46:50.231Z,6.37
2018-06-29T18:49:17.970Z,7.20
2018-06-29T18:51:46.370Z,4.72
2018-06-29T18:54:14.087Z,7.08
2018-06-29T18:56:41.855Z,5.00
2018-06-29T18:59:09.557Z,3.70
2018-06-29T19:01:37.312Z,6.28
2018-06-29T19:04:04.958Z,4.22
2018-06-29T19:06:32.698Z,4.92
2018-06-29T19:09:00.373Z,6.00
2018-06-29T19:11:28.222Z,4.20
2018-06-29T19:13:55.928Z,4.15
2018-06-29T19:16:23.667Z,6.65
2018-06-29T19:18:51.342Z,6.62
2018-06-29T19:21:19.064Z,6.58
2018-06-29T19:23:47.466Z,5.70
2018-06-29T19:26:15.165Z,7.22
2018-06-29T19:28:42.843Z,7.37
2018-06-29T19:31:10.538Z,5.67
2018-06-29T19:33:38.500Z,6.15
2018-06-29T19:36:06.254Z,8.45
2018-06-29T19:38:34.049Z,5.15
2018-06-29T19:41:02.430Z,5.33
2018-06-29T19:43:30.191Z,4.65
2018-06-29T19:45:57.907Z,5.60
2018-06-29T19:48:25.633Z,6.08
2018-06-29T19:50:53.516Z,5.22
2018-06-29T19:53:21.253Z,5.75
2018-06-29T19:55:48.908Z,5.30
2018-06-29T19:58:16.591Z,4.50
2018-06-29T20:00:44.561Z,6.30
2018-06-29T20:03:12.237Z,8.57
2018-06-29T20:05:39.939Z,5.17
2018-06-29T20:08:07.909Z,5.37
2018-06-29T20:10:35.686Z,4.77
2018-06-29T20:13:03.380Z,3.67
2018-06-29T20:15:31.094Z,4.83
2018-06-29T20:17:58.804Z,7.63
2018-06-29T20:20:26.505Z,5.57
2018-06-29T20:22:54.207Z,6.37
2018-06-29T20:25:22.019Z,5.17
2018-06-29T20:27:49.683Z,9.30
2018-06-29T20:30:17.430Z,7.37
2018-06-29T20:32:45.155Z,4.77
2018-06-29T20:35:13.174Z,8.83
2018-06-29T20:37:40.935Z,7.73
2018-06-29T20:40:08.734Z,5.73
2018-06-29T20:42:36.467Z,7.30
2018-06-29T20:45:04.236Z,6.80
2018-06-29T20:47:32.046Z,5.90
2018-06-29T20:50:00.139Z,6.60
2018-06-29T20:52:27.891Z,7.40
2018-06-29T20:54:55.707Z,7.10
2018-06-29T20:57:24.127Z,6.10
2018-06-29T20:59:52.459Z,6.20
2018-06-29T21:02:20.524Z,7.93
2018-06-29T21:04:49.389Z,7.97
2018-06-29T21:07:17.369Z,7.20
2018-06-29T21:09:45.143Z,6.67
2018-06-29T21:12:12.948Z,7.40
2018-06-29T21:14:41.577Z,5.87
2018-06-29T21:17:09.491Z,5.33
2018-06-29T21:19:37.179Z,6.17
2018-06-29T21:22:04.905Z,5.63
2018-06-29T21:24:32.667Z,6.43
2018-06-29T21:27:00.700Z,5.90
2018-06-29T21:29:28.468Z,5.83
2018-06-29T21:31:56.193Z,5.93
2018-06-29T21:34:23.926Z,7.60
2018-06-29T21:36:51.690Z,5.43
2018-06-29T21:39:20.167Z,8.73
2018-06-29T21:41:47.840Z,7.43
2018-06-29T21:44:15.543Z,5.53
2018-06-29T21:46:43.335Z,5.17
2018-06-29T21:49:11.114Z,7.23
2018-06-29T21:51:38.876Z,4.57
2018-06-29T21:54:06.917Z,8.03
2018-06-29T21:56:34.603Z,4.93
2018-06-29T21:59:02.294Z,5.53
2018-06-29T22:01:30.024Z,5.13
2018-06-29T22:03:57.754Z,4.40
2018-06-29T22:06:25.454Z,5.63
2018-06-29T22:08:53.159Z,7.00
2018-06-29T22:11:20.905Z,5.60
2018-06-29T22:13:48.621Z,5.97
2018-06-29T22:16:16.306Z,5.13
2018-06-29T22:18:44.018Z,7.33
2018-06-29T22:21:11.681Z,7.13
2018-06-29T22:23:39.503Z,5.53
2018-06-29T22:26:07.211Z,7.30
2018-06-29T22:28:34.931Z,7.90
2018-06-29T22:31:02.648Z,5.30
2018-06-29T22:33:30.309Z,5.23
2018-06-29T22:35:58.016Z,5.70
2018-06-29T22:38:25.750Z,6.70
2018-06-29T22:40:53.492Z,6.33
2018-06-29T22:43:21.191Z,8.73
2018-06-29T22:45:48.890Z,5.83
2018-06-29T22:48:16.563Z,7.47
2018-06-29T22:50:44.705Z,5.80
2018-06-29T22:53:12.415Z,6.53
2018-06-29T22:55:40.137Z,7.47
2018-06-29T22:58:07.906Z,6.17
2018-06-29T23:00:35.618Z,7.27
2018-06-29T23:03:05.438Z,7.67
2018-06-29T23:05:33.305Z,6.33
2018-06-29T23:08:01.132Z,6.97
2018-06-29T23:10:29.046Z,6.93
2018-06-29T23:12:56.979Z,8.83
2018-06-29T23:15:24.897Z,8.77
2018-06-29T23:17:52.675Z,8.10
2018-06-29T23:20:20.544Z,8.73
2018-06-29T23:22:48.465Z,9.90
2018-06-29T23:25:16.608Z,7.13
2018-06-29T23:27:44.426Z,10.57
2018-06-29T23:30:12.290Z,9.47
2018-06-29T23:32:40.126Z,10.60
2018-06-29T23:35:07.870Z,8.50
2018-06-29T23:37:35.682Z,10.43
2018-06-29T23:40:04.102Z,7.80
2018-06-29T23:42:31.837Z,10.57
2018-06-29T23:44:59.586Z,11.63
2018-06-29T23:47:27.326Z,8.00
2018-06-29T23:49:55.049Z,9.00
2018-06-29T23:52:22.928Z,10.40
2018-06-29T23:54:51.454Z,10.13
2018-06-29T23:57:19.233Z,10.80
2018-06-29T23:59:47.164Z,7.77
